sensor_id;sensor_type;location;lat;lon;timestamp;pressure;altitude;pressure_sealevel;temperature;humidity
41312;BME280;27061;41.648;24.568;2023-04-04T00:00:44;84503.16;;;5.61;86.30
41312;BME280;27061;41.648;24.568;2023-04-04T00:03:11;84460.38;;;5.35;86.35
41312;BME280;27061;41.648;24.568;2023-04-04T00:05:38;84493.56;;;5.60;85.75
41312;BME280;27061;41.648;24.568;2023-04-04T00:08:06;84439.09;;;5.35;86.34
41312;BME280;27061;41.648;24.568;2023-04-04T00:10:33;84460.16;;;5.47;85.34
41312;BME280;27061;41.648;24.568;2023-04-04T00:13:00;84442.19;;;5.15;87.04
41312;BME280;27061;41.648;24.568;2023-04-04T00:15:28;84464.34;;;5.44;86.79
41312;BME280;27061;41.648;24.568;2023-04-04T00:17:56;84429.31;;;5.07;86.48
41312;BME280;27061;41.648;24.568;2023-04-04T00:20:23;84468.47;;;5.43;87.53
41312;BME280;27061;41.648;24.568;2023-04-04T00:22:50;84415.75;;;4.97;87.53
41312;BME280;27061;41.648;24.568;2023-04-04T00:25:17;84433.53;;;5.00;88.49
41312;BME280;27061;41.648;24.568;2023-04-04T00:27:46;84452.25;;;5.29;87.64
41312;BME280;27061;41.648;24.568;2023-04-04T00:30:14;84469.22;;;5.39;86.92
41312;BME280;27061;41.648;24.568;2023-04-04T00:32:41;84395.31;;;4.88;87.11
41312;BME280;27061;41.648;24.568;2023-04-04T00:35:08;84456.34;;;5.30;88.06
41312;BME280;27061;41.648;24.568;2023-04-04T00:37:36;84414.47;;;4.92;89.71
41312;BME280;27061;41.648;24.568;2023-04-04T00:40:04;84466.69;;;5.27;89.74
41312;BME280;27061;41.648;24.568;2023-04-04T00:42:32;84445.97;;;4.95;91.83
41312;BME280;27061;41.648;24.568;2023-04-04T00:45:00;84451.81;;;5.14;92.12
41312;BME280;27061;41.648;24.568;2023-04-04T00:47:29;84453.72;;;5.22;91.46
41312;BME280;27061;41.648;24.568;2023-04-04T00:49:57;84453.72;;;5.22;92.57
41312;BME280;27061;41.648;24.568;2023-04-04T00:52:24;84415.78;;;4.95;92.37
41312;BME280;27061;41.648;24.568;2023-04-04T00:54:52;84374.88;;;4.83;92.34
41312;BME280;27061;41.648;24.568;2023-04-04T00:57:20;84395.25;;;4.94;92.72
41312;BME280;27061;41.648;24.568;2023-04-04T00:59:48;84413.66;;;5.00;93.78
41312;BME280;27061;41.648;24.568;2023-04-04T01:02:15;84411.50;;;5.06;93.84
41312;BME280;27061;41.648;24.568;2023-04-04T01:04:43;84429.75;;;5.20;94.74
41312;BME280;27061;41.648;24.568;2023-04-04T01:07:10;84443.38;;;5.26;94.51
41312;BME280;27061;41.648;24.568;2023-04-04T01:09:37;84434.56;;;5.20;95.06
41312;BME280;27061;41.648;24.568;2023-04-04T01:12:05;84454.41;;;5.22;96.06
41312;BME280;27061;41.648;24.568;2023-04-04T01:14:33;84427.78;;;5.17;95.30
41312;BME280;27061;41.648;24.568;2023-04-04T01:17:00;84422.94;;;5.19;94.87
41312;BME280;27061;41.648;24.568;2023-04-04T01:19:35;84422.31;;;5.14;96.05
41312;BME280;27061;41.648;24.568;2023-04-04T01:22:10;84431.69;;;5.28;94.97
41312;BME280;27061;41.648;24.568;2023-04-04T01:24:41;84426.31;;;5.22;95.03
41312;BME280;27061;41.648;24.568;2023-04-04T01:27:10;84365.31;;;4.80;94.75
41312;BME280;27061;41.648;24.568;2023-04-04T01:29:49;84436.06;;;5.12;95.86
41312;BME280;27061;41.648;24.568;2023-04-04T01:32:20;84400.00;;;4.98;95.69
41312;BME280;27061;41.648;24.568;2023-04-04T01:35:19;84429.00;;;5.24;96.15
41312;BME280;27061;41.648;24.568;2023-04-04T01:38:17;84420.09;;;5.23;95.57
41312;BME280;27061;41.648;24.568;2023-04-04T01:40:51;84404.34;;;5.22;94.86
41312;BME280;27061;41.648;24.568;2023-04-04T01:43:22;84421.84;;;5.41;95.37
41312;BME280;27061;41.648;24.568;2023-04-04T01:45:49;84437.13;;;5.30;95.17
41312;BME280;27061;41.648;24.568;2023-04-04T01:48:17;84431.00;;;5.29;95.91
41312;BME280;27061;41.648;24.568;2023-04-04T01:50:49;84392.91;;;5.09;94.22
41312;BME280;27061;41.648;24.568;2023-04-04T01:53:16;84415.41;;;5.18;94.38
41312;BME280;27061;41.648;24.568;2023-04-04T01:55:43;84381.53;;;4.94;94.10
41312;BME280;27061;41.648;24.568;2023-04-04T01:58:10;84443.09;;;5.42;95.94
41312;BME280;27061;41.648;24.568;2023-04-04T02:00:38;84438.88;;;5.47;95.31
41312;BME280;27061;41.648;24.568;2023-04-04T02:03:05;84437.63;;;5.40;94.68
41312;BME280;27061;41.648;24.568;2023-04-04T02:05:38;84432.78;;;5.43;94.49
41312;BME280;27061;41.648;24.568;2023-04-04T02:08:05;84401.44;;;5.32;94.08
41312;BME280;27061;41.648;24.568;2023-04-04T02:10:41;84432.78;;;5.43;95.29
41312;BME280;27061;41.648;24.568;2023-04-04T02:13:09;84425.81;;;5.50;95.26
41312;BME280;27061;41.648;24.568;2023-04-04T02:15:36;84452.13;;;5.74;95.13
41312;BME280;27061;41.648;24.568;2023-04-04T02:18:03;84430.25;;;5.70;95.12
41312;BME280;27061;41.648;24.568;2023-04-04T02:20:30;84407.78;;;5.59;95.03
41312;BME280;27061;41.648;24.568;2023-04-04T02:22:57;84423.84;;;5.81;94.25
41312;BME280;27061;41.648;24.568;2023-04-04T02:25:24;84425.22;;;5.80;91.29
41312;BME280;27061;41.648;24.568;2023-04-04T02:27:51;84449.78;;;5.91;92.02
41312;BME280;27061;41.648;24.568;2023-04-04T02:30:19;84420.06;;;5.62;92.10
41312;BME280;27061;41.648;24.568;2023-04-04T02:32:47;84432.66;;;5.86;92.38
41312;BME280;27061;41.648;24.568;2023-04-04T02:35:17;84435.81;;;6.03;92.41
41312;BME280;27061;41.648;24.568;2023-04-04T02:37:45;84445.28;;;6.10;92.67
41312;BME280;27061;41.648;24.568;2023-04-04T02:40:20;84437.41;;;5.92;91.44
41312;BME280;27061;41.648;24.568;2023-04-04T02:42:47;84377.91;;;5.43;92.24
41312;BME280;27061;41.648;24.568;2023-04-04T02:45:15;84440.69;;;5.98;91.85
41312;BME280;27061;41.648;24.568;2023-04-04T02:47:51;84423.91;;;6.14;90.71
41312;BME280;27061;41.648;24.568;2023-04-04T02:50:24;84435.19;;;5.98;91.03
41312;BME280;27061;41.648;24.568;2023-04-04T02:53:00;84422.69;;;6.05;91.19
41312;BME280;27061;41.648;24.568;2023-04-04T02:55:30;84397.88;;;5.74;91.84
41312;BME280;27061;41.648;24.568;2023-04-04T02:58:03;84403.47;;;5.70;91.15
41312;BME280;27061;41.648;24.568;2023-04-04T03:00:30;84413.78;;;5.70;90.92
41312;BME280;27061;41.648;24.568;2023-04-04T03:02:57;84423.38;;;5.71;91.62
41312;BME280;27061;41.648;24.568;2023-04-04T03:05:30;84406.09;;;5.76;90.08
41312;BME280;27061;41.648;24.568;2023-04-04T03:08:01;84402.00;;;5.73;90.21
41312;BME280;27061;41.648;24.568;2023-04-04T03:10:29;84396.69;;;5.65;90.66
41312;BME280;27061;41.648;24.568;2023-04-04T03:12:58;84417.41;;;5.95;90.22
41312;BME280;27061;41.648;24.568;2023-04-04T03:15:27;84425.75;;;5.91;90.94
41312;BME280;27061;41.648;24.568;2023-04-04T03:17:55;84419.63;;;5.86;91.28
41312;BME280;27061;41.648;24.568;2023-04-04T03:20:25;84420.97;;;5.90;91.78
41312;BME280;27061;41.648;24.568;2023-04-04T03:22:52;84412.69;;;5.92;90.00
41312;BME280;27061;41.648;24.568;2023-04-04T03:25:20;84433.69;;;6.05;88.40
41312;BME280;27061;41.648;24.568;2023-04-04T03:27:47;84384.34;;;5.64;89.86
41312;BME280;27061;41.648;24.568;2023-04-04T03:30:20;84431.75;;;6.00;90.90
41312;BME280;27061;41.648;24.568;2023-04-04T03:32:47;84407.00;;;5.65;91.16
41312;BME280;27061;41.648;24.568;2023-04-04T03:35:16;84374.34;;;5.50;90.04
41312;BME280;27061;41.648;24.568;2023-04-04T03:37:43;84376.69;;;5.71;89.67
41312;BME280;27061;41.648;24.568;2023-04-04T03:40:10;84342.50;;;5.29;90.13
41312;BME280;27061;41.648;24.568;2023-04-04T03:42:38;84429.53;;;6.06;90.53
41312;BME280;27061;41.648;24.568;2023-04-04T03:45:08;84386.91;;;5.74;90.89
41312;BME280;27061;41.648;24.568;2023-04-04T03:47:37;84431.34;;;6.20;91.56
41312;BME280;27061;41.648;24.568;2023-04-04T03:50:04;84411.47;;;6.17;90.41
41312;BME280;27061;41.648;24.568;2023-04-04T03:52:36;84406.81;;;6.10;90.62
41312;BME280;27061;41.648;24.568;2023-04-04T03:55:05;84429.38;;;6.47;88.49
41312;BME280;27061;41.648;24.568;2023-04-04T03:57:33;84432.44;;;6.33;89.68
41312;BME280;27061;41.648;24.568;2023-04-04T04:00:02;84391.19;;;6.02;90.27
41312;BME280;27061;41.648;24.568;2023-04-04T04:02:37;84428.97;;;6.35;90.27
41312;BME280;27061;41.648;24.568;2023-04-04T04:05:06;84436.81;;;6.53;88.41
41312;BME280;27061;41.648;24.568;2023-04-04T04:07:33;84407.75;;;6.31;87.18
41312;BME280;27061;41.648;24.568;2023-04-04T04:10:00;84422.88;;;6.30;87.81
41312;BME280;27061;41.648;24.568;2023-04-04T04:12:27;84423.56;;;6.31;88.38
41312;BME280;27061;41.648;24.568;2023-04-04T04:14:54;84456.03;;;6.22;89.94
41312;BME280;27061;41.648;24.568;2023-04-04T04:17:21;84428.03;;;6.13;89.80
41312;BME280;27061;41.648;24.568;2023-04-04T04:19:48;84438.81;;;6.23;89.17
41312;BME280;27061;41.648;24.568;2023-04-04T04:22:16;84443.28;;;6.39;88.66
41312;BME280;27061;41.648;24.568;2023-04-04T04:24:43;84464.44;;;6.47;88.91
41312;BME280;27061;41.648;24.568;2023-04-04T04:27:12;84459.50;;;6.53;88.86
41312;BME280;27061;41.648;24.568;2023-04-04T04:29:47;84426.25;;;6.33;88.39
41312;BME280;27061;41.648;24.568;2023-04-04T04:32:16;84414.91;;;6.16;89.07
41312;BME280;27061;41.648;24.568;2023-04-04T04:34:47;84450.00;;;6.46;88.82
41312;BME280;27061;41.648;24.568;2023-04-04T04:37:19;84437.75;;;6.41;89.34
41312;BME280;27061;41.648;24.568;2023-04-04T04:39:48;84455.94;;;6.26;89.02
41312;BME280;27061;41.648;24.568;2023-04-04T04:42:36;84465.25;;;6.41;89.62
41312;BME280;27061;41.648;24.568;2023-04-04T04:45:05;84463.72;;;6.48;90.09
41312;BME280;27061;41.648;24.568;2023-04-04T04:47:34;84470.38;;;6.57;90.55
41312;BME280;27061;41.648;24.568;2023-04-04T04:50:04;84466.16;;;6.63;90.55
41312;BME280;27061;41.648;24.568;2023-04-04T04:52:36;84441.66;;;6.52;89.52
41312;BME280;27061;41.648;24.568;2023-04-04T04:55:04;84452.94;;;6.69;88.43
41312;BME280;27061;41.648;24.568;2023-04-04T04:57:33;84449.50;;;6.71;88.19
41312;BME280;27061;41.648;24.568;2023-04-04T05:00:05;84443.56;;;6.58;87.90
41312;BME280;27061;41.648;24.568;2023-04-04T05:02:34;84476.81;;;6.79;88.68
41312;BME280;27061;41.648;24.568;2023-04-04T05:05:01;84445.06;;;6.53;87.60
41312;BME280;27061;41.648;24.568;2023-04-04T05:07:31;84477.53;;;6.77;87.69
41312;BME280;27061;41.648;24.568;2023-04-04T05:09:58;84405.72;;;6.30;86.83
41312;BME280;27061;41.648;24.568;2023-04-04T05:12:25;84481.16;;;6.68;86.64
41312;BME280;27061;41.648;24.568;2023-04-04T05:14:53;84420.13;;;6.30;86.64
41312;BME280;27061;41.648;24.568;2023-04-04T05:17:20;84440.75;;;6.29;87.03
41312;BME280;27061;41.648;24.568;2023-04-04T05:19:52;84479.16;;;6.66;86.65
41312;BME280;27061;41.648;24.568;2023-04-04T05:22:20;84477.75;;;6.67;87.00
41312;BME280;27061;41.648;24.568;2023-04-04T05:24:50;84397.34;;;6.03;86.47
41312;BME280;27061;41.648;24.568;2023-04-04T05:27:22;84446.28;;;6.27;86.11
41312;BME280;27061;41.648;24.568;2023-04-04T05:29:55;84429.34;;;6.16;86.45
41312;BME280;27061;41.648;24.568;2023-04-04T05:32:26;84437.31;;;6.29;84.82
41312;BME280;27061;41.648;24.568;2023-04-04T05:35:04;84461.06;;;6.44;84.74
41312;BME280;27061;41.648;24.568;2023-04-04T05:37:37;84478.63;;;6.57;85.51
41312;BME280;27061;41.648;24.568;2023-04-04T05:40:07;84480.72;;;6.57;83.84
41312;BME280;27061;41.648;24.568;2023-04-04T05:42:35;84481.22;;;6.66;83.95
41312;BME280;27061;41.648;24.568;2023-04-04T05:45:03;84480.13;;;6.52;84.02
41312;BME280;27061;41.648;24.568;2023-04-04T05:47:30;84504.50;;;6.71;84.10
41312;BME280;27061;41.648;24.568;2023-04-04T05:49:58;84500.81;;;6.82;83.87
41312;BME280;27061;41.648;24.568;2023-04-04T05:52:26;84502.78;;;6.86;82.80
41312;BME280;27061;41.648;24.568;2023-04-04T05:54:53;84506.09;;;6.92;81.24
41312;BME280;27061;41.648;24.568;2023-04-04T05:57:26;84503.72;;;6.74;82.66
41312;BME280;27061;41.648;24.568;2023-04-04T05:59:55;84463.81;;;6.44;82.39
41312;BME280;27061;41.648;24.568;2023-04-04T06:02:23;84428.59;;;6.20;82.21
41312;BME280;27061;41.648;24.568;2023-04-04T06:04:57;84478.75;;;6.53;83.05
41312;BME280;27061;41.648;24.568;2023-04-04T06:07:39;84501.63;;;6.77;83.18
41312;BME280;27061;41.648;24.568;2023-04-04T06:10:07;84465.00;;;6.53;82.33
41312;BME280;27061;41.648;24.568;2023-04-04T06:12:35;84494.16;;;6.71;84.09
41312;BME280;27061;41.648;24.568;2023-04-04T06:15:07;84465.06;;;6.49;83.48
41312;BME280;27061;41.648;24.568;2023-04-04T06:17:35;84464.31;;;6.53;84.50
41312;BME280;27061;41.648;24.568;2023-04-04T06:20:02;84476.53;;;6.60;84.95
41312;BME280;27061;41.648;24.568;2023-04-04T06:22:32;84477.41;;;6.50;86.28
41312;BME280;27061;41.648;24.568;2023-04-04T06:25:01;84466.44;;;6.50;84.83
41312;BME280;27061;41.648;24.568;2023-04-04T06:27:32;84462.56;;;6.37;85.20
41312;BME280;27061;41.648;24.568;2023-04-04T06:30:02;84438.75;;;6.25;85.92
41312;BME280;27061;41.648;24.568;2023-04-04T06:32:30;84480.97;;;6.45;86.13
41312;BME280;27061;41.648;24.568;2023-04-04T06:34:58;84482.16;;;6.54;85.01
41312;BME280;27061;41.648;24.568;2023-04-04T06:37:45;84432.94;;;6.09;81.26
41312;BME280;27061;41.648;24.568;2023-04-04T06:40:15;84472.00;;;6.46;83.86
41312;BME280;27061;41.648;24.568;2023-04-04T06:42:49;84455.78;;;6.34;83.24
41312;BME280;27061;41.648;24.568;2023-04-04T06:45:20;84459.56;;;6.49;80.94
41312;BME280;27061;41.648;24.568;2023-04-04T06:47:47;84475.13;;;6.61;83.93
41312;BME280;27061;41.648;24.568;2023-04-04T06:50:16;84452.63;;;6.52;88.77
41312;BME280;27061;41.648;24.568;2023-04-04T06:52:49;84474.19;;;6.73;91.10
41312;BME280;27061;41.648;24.568;2023-04-04T06:55:17;84435.50;;;6.50;91.31
41312;BME280;27061;41.648;24.568;2023-04-04T06:57:44;84418.56;;;6.39;93.24
41312;BME280;27061;41.648;24.568;2023-04-04T07:00:11;84483.44;;;6.90;92.30
41312;BME280;27061;41.648;24.568;2023-04-04T07:02:39;84477.72;;;7.00;90.67
41312;BME280;27061;41.648;24.568;2023-04-04T07:05:10;84473.78;;;6.91;87.93
41312;BME280;27061;41.648;24.568;2023-04-04T07:07:39;84436.00;;;6.58;84.80
41312;BME280;27061;41.648;24.568;2023-04-04T07:10:07;84479.44;;;6.85;84.67
41312;BME280;27061;41.648;24.568;2023-04-04T07:12:34;84486.56;;;7.05;86.54
41312;BME280;27061;41.648;24.568;2023-04-04T07:15:01;84462.66;;;6.97;90.29
41312;BME280;27061;41.648;24.568;2023-04-04T07:17:29;84492.31;;;7.23;92.86
41312;BME280;27061;41.648;24.568;2023-04-04T07:19:57;84468.41;;;7.16;93.92
41312;BME280;27061;41.648;24.568;2023-04-04T07:22:24;84447.56;;;6.96;88.07
41312;BME280;27061;41.648;24.568;2023-04-04T07:24:51;84458.50;;;6.98;86.68
41312;BME280;27061;41.648;24.568;2023-04-04T07:27:18;84468.16;;;6.97;89.99
41312;BME280;27061;41.648;24.568;2023-04-04T07:29:45;84493.63;;;7.26;89.27
41312;BME280;27061;41.648;24.568;2023-04-04T07:32:12;84452.94;;;6.69;85.16
41312;BME280;27061;41.648;24.568;2023-04-04T07:34:39;84476.94;;;7.04;84.87
41312;BME280;27061;41.648;24.568;2023-04-04T07:37:06;84488.09;;;7.28;81.86
41312;BME280;27061;41.648;24.568;2023-04-04T07:39:33;84507.44;;;7.53;80.38
41312;BME280;27061;41.648;24.568;2023-04-04T07:42:00;84507.44;;;7.53;81.21
41312;BME280;27061;41.648;24.568;2023-04-04T07:44:28;84484.94;;;7.45;78.98
41312;BME280;27061;41.648;24.568;2023-04-04T07:46:55;84472.84;;;7.31;78.65
41312;BME280;27061;41.648;24.568;2023-04-04T07:49:35;84502.03;;;7.49;83.40
41312;BME280;27061;41.648;24.568;2023-04-04T07:52:02;84509.44;;;7.57;77.59
41312;BME280;27061;41.648;24.568;2023-04-04T07:54:30;84520.72;;;7.73;78.13
41312;BME280;27061;41.648;24.568;2023-04-04T07:56:57;84505.88;;;7.62;80.53
41312;BME280;27061;41.648;24.568;2023-04-04T07:59:24;84512.38;;;7.78;76.64
41312;BME280;27061;41.648;24.568;2023-04-04T08:01:52;84525.25;;;7.85;77.52
41312;BME280;27061;41.648;24.568;2023-04-04T08:04:26;84513.28;;;7.68;79.23
41312;BME280;27061;41.648;24.568;2023-04-04T08:06:53;84492.91;;;7.57;81.01
41312;BME280;27061;41.648;24.568;2023-04-04T08:09:20;84513.56;;;7.85;85.95
41312;BME280;27061;41.648;24.568;2023-04-04T08:11:47;84516.84;;;7.91;87.56
41312;BME280;27061;41.648;24.568;2023-04-04T08:14:14;84512.38;;;8.04;81.49
41312;BME280;27061;41.648;24.568;2023-04-04T08:16:46;84479.06;;;7.88;83.75
41312;BME280;27061;41.648;24.568;2023-04-04T08:19:13;84469.66;;;7.79;85.43
41312;BME280;27061;41.648;24.568;2023-04-04T08:21:42;84475.56;;;7.89;79.76
41312;BME280;27061;41.648;24.568;2023-04-04T08:24:11;84480.88;;;7.97;80.47
41312;BME280;27061;41.648;24.568;2023-04-04T08:26:38;84473.22;;;8.00;74.75
41312;BME280;27061;41.648;24.568;2023-04-04T08:29:05;84484.72;;;8.08;79.88
41312;BME280;27061;41.648;24.568;2023-04-04T08:31:33;84458.09;;;7.99;84.76
41312;BME280;27061;41.648;24.568;2023-04-04T08:34:00;84503.34;;;8.35;88.71
41312;BME280;27061;41.648;24.568;2023-04-04T08:36:34;84493.78;;;8.32;89.99
41312;BME280;27061;41.648;24.568;2023-04-04T08:39:01;84501.09;;;8.41;86.03
41312;BME280;27061;41.648;24.568;2023-04-04T08:41:29;84487.25;;;8.43;83.81
41312;BME280;27061;41.648;24.568;2023-04-04T08:44:02;84508.91;;;8.82;87.86
41312;BME280;27061;41.648;24.568;2023-04-04T08:46:31;84502.09;;;8.79;82.02
41312;BME280;27061;41.648;24.568;2023-04-04T08:48:59;84504.75;;;8.84;83.47
41312;BME280;27061;41.648;24.568;2023-04-04T08:51:28;84477.41;;;8.75;81.06
41312;BME280;27061;41.648;24.568;2023-04-04T08:53:58;84482.53;;;8.90;83.87
41312;BME280;27061;41.648;24.568;2023-04-04T08:56:27;84485.16;;;8.94;72.20
41312;BME280;27061;41.648;24.568;2023-04-04T08:58:56;84492.84;;;9.14;79.71
41312;BME280;27061;41.648;24.568;2023-04-04T09:01:25;84533.47;;;9.40;82.58
41312;BME280;27061;41.648;24.568;2023-04-04T09:03:59;84529.06;;;9.49;81.19
41312;BME280;27061;41.648;24.568;2023-04-04T09:06:26;84511.06;;;9.50;82.30
41312;BME280;27061;41.648;24.568;2023-04-04T09:08:54;84518.84;;;9.67;82.66
41312;BME280;27061;41.648;24.568;2023-04-04T09:11:23;84513.75;;;9.75;85.08
41312;BME280;27061;41.648;24.568;2023-04-04T09:13:53;84519.78;;;9.82;82.19
41312;BME280;27061;41.648;24.568;2023-04-04T09:16:22;84535.59;;;10.06;78.27
41312;BME280;27061;41.648;24.568;2023-04-04T09:18:49;84510.16;;;10.02;77.30
41312;BME280;27061;41.648;24.568;2023-04-04T09:21:18;84515.22;;;9.95;72.30
41312;BME280;27061;41.648;24.568;2023-04-04T09:23:46;84511.66;;;9.76;70.43
41312;BME280;27061;41.648;24.568;2023-04-04T09:26:13;84502.78;;;9.73;71.31
41312;BME280;27061;41.648;24.568;2023-04-04T09:28:42;84546.34;;;10.16;72.30
41312;BME280;27061;41.648;24.568;2023-04-04T09:31:10;84552.97;;;10.25;72.95
41312;BME280;27061;41.648;24.568;2023-04-04T09:33:37;84522.00;;;9.98;71.67
41312;BME280;27061;41.648;24.568;2023-04-04T09:36:06;84546.22;;;10.20;68.26
41312;BME280;27061;41.648;24.568;2023-04-04T09:38:38;84549.81;;;10.38;69.87
41312;BME280;27061;41.648;24.568;2023-04-04T09:41:07;84540.16;;;10.37;72.80
41312;BME280;27061;41.648;24.568;2023-04-04T09:43:38;84545.09;;;10.55;71.35
41312;BME280;27061;41.648;24.568;2023-04-04T09:46:13;84549.59;;;10.64;65.81
41312;BME280;27061;41.648;24.568;2023-04-04T09:48:47;84545.94;;;10.49;63.98
41312;BME280;27061;41.648;24.568;2023-04-04T09:51:14;84484.56;;;10.24;70.72
41312;BME280;27061;41.648;24.568;2023-04-04T09:53:46;84526.09;;;10.63;69.19
41312;BME280;27061;41.648;24.568;2023-04-04T09:56:14;84517.34;;;10.57;66.00
41312;BME280;27061;41.648;24.568;2023-04-04T09:58:45;84551.47;;;10.70;66.39
41312;BME280;27061;41.648;24.568;2023-04-04T10:01:16;84533.53;;;10.69;67.90
41312;BME280;27061;41.648;24.568;2023-04-04T10:03:51;84512.75;;;10.49;69.09
41312;BME280;27061;41.648;24.568;2023-04-04T10:06:20;84549.44;;;10.89;68.60
41312;BME280;27061;41.648;24.568;2023-04-04T10:08:47;84551.47;;;10.49;64.57
41312;BME280;27061;41.648;24.568;2023-04-04T10:11:27;84542.50;;;10.28;70.98
41312;BME280;27061;41.648;24.568;2023-04-04T10:13:56;84556.34;;;10.49;67.88
41312;BME280;27061;41.648;24.568;2023-04-04T10:16:24;84554.34;;;10.47;64.37
41312;BME280;27061;41.648;24.568;2023-04-04T10:18:52;84566.88;;;10.65;66.47
41312;BME280;27061;41.648;24.568;2023-04-04T10:21:20;84559.44;;;10.39;65.40
41312;BME280;27061;41.648;24.568;2023-04-04T10:23:48;84570.50;;;10.39;66.71
41312;BME280;27061;41.648;24.568;2023-04-04T10:26:15;84561.34;;;10.44;67.24
41312;BME280;27061;41.648;24.568;2023-04-04T10:28:42;84551.75;;;10.20;66.08
41312;BME280;27061;41.648;24.568;2023-04-04T10:31:21;84576.66;;;10.41;65.60
41312;BME280;27061;41.648;24.568;2023-04-04T10:34:09;84570.47;;;10.18;67.07
41312;BME280;27061;41.648;24.568;2023-04-04T10:39:25;84566.81;;;10.03;68.24
41312;BME280;27061;41.648;24.568;2023-04-04T10:41:54;84565.94;;;10.08;64.32
41312;BME280;27061;41.648;24.568;2023-04-04T10:44:30;84530.38;;;9.96;66.04
41312;BME280;27061;41.648;24.568;2023-04-04T10:49:45;84549.91;;;10.13;68.08
41312;BME280;27061;41.648;24.568;2023-04-04T10:52:15;84555.13;;;10.23;71.36
41312;BME280;27061;41.648;24.568;2023-04-04T10:54:43;84508.41;;;9.92;74.20
41312;BME280;27061;41.648;24.568;2023-04-04T10:57:11;84496.22;;;10.06;74.07
41312;BME280;27061;41.648;24.568;2023-04-04T11:00:05;84556.16;;;10.55;68.63
41312;BME280;27061;41.648;24.568;2023-04-04T11:05:10;84520.34;;;10.07;64.16
41312;BME280;27061;41.648;24.568;2023-04-04T11:07:39;84546.22;;;10.62;64.59
41312;BME280;27061;41.648;24.568;2023-04-04T11:10:15;84539.31;;;10.19;62.87
41312;BME280;27061;41.648;24.568;2023-04-04T11:12:52;84522.06;;;10.40;63.12
41312;BME280;27061;41.648;24.568;2023-04-04T11:21:13;84503.44;;;10.59;62.57
41312;BME280;27061;41.648;24.568;2023-04-04T11:26:33;84510.16;;;10.85;64.52
41312;BME280;27061;41.648;24.568;2023-04-04T11:29:02;84535.34;;;11.16;69.66
41312;BME280;27061;41.648;24.568;2023-04-04T11:31:38;84486.13;;;10.79;66.04
41312;BME280;27061;41.648;24.568;2023-04-04T11:34:29;84529.72;;;10.99;64.64
41312;BME280;27061;41.648;24.568;2023-04-04T11:36:56;84526.06;;;11.24;60.14
41312;BME280;27061;41.648;24.568;2023-04-04T11:44:30;84548.78;;;10.89;66.38
41312;BME280;27061;41.648;24.568;2023-04-04T11:47:04;84556.47;;;10.86;69.24
41312;BME280;27061;41.648;24.568;2023-04-04T11:49:42;84564.84;;;10.84;68.89
41312;BME280;27061;41.648;24.568;2023-04-04T11:52:13;84534.63;;;10.57;67.85
41312;BME280;27061;41.648;24.568;2023-04-04T11:54:42;84564.41;;;10.96;66.22
41312;BME280;27061;41.648;24.568;2023-04-04T11:57:14;84484.03;;;10.19;68.32
41312;BME280;27061;41.648;24.568;2023-04-04T11:59:43;84555.00;;;10.69;68.52
41312;BME280;27061;41.648;24.568;2023-04-04T12:02:12;84531.56;;;10.66;72.55
41312;BME280;27061;41.648;24.568;2023-04-04T12:04:40;84476.34;;;10.22;71.71
41312;BME280;27061;41.648;24.568;2023-04-04T12:07:11;84552.69;;;10.96;69.41
41312;BME280;27061;41.648;24.568;2023-04-04T12:09:39;84557.00;;;10.91;69.92
41312;BME280;27061;41.648;24.568;2023-04-04T12:12:14;84558.88;;;10.96;73.14
41312;BME280;27061;41.648;24.568;2023-04-04T12:14:45;84556.44;;;11.07;70.29
41312;BME280;27061;41.648;24.568;2023-04-04T12:17:15;84553.22;;;11.00;67.97
41312;BME280;27061;41.648;24.568;2023-04-04T12:19:42;84548.56;;;10.74;69.14
41312;BME280;27061;41.648;24.568;2023-04-04T12:22:09;84556.59;;;10.82;69.70
41312;BME280;27061;41.648;24.568;2023-04-04T12:24:36;84554.34;;;10.68;73.62
41312;BME280;27061;41.648;24.568;2023-04-04T12:27:04;84561.06;;;10.73;73.96
41312;BME280;27061;41.648;24.568;2023-04-04T12:29:32;84542.19;;;10.59;73.24
41312;BME280;27061;41.648;24.568;2023-04-04T12:32:04;84568.00;;;10.72;73.44
41312;BME280;27061;41.648;24.568;2023-04-04T12:34:33;84558.22;;;10.75;72.75
41312;BME280;27061;41.648;24.568;2023-04-04T12:37:01;84511.69;;;10.40;72.34
41312;BME280;27061;41.648;24.568;2023-04-04T12:39:29;84560.66;;;10.64;72.17
41312;BME280;27061;41.648;24.568;2023-04-04T12:44:25;84552.84;;;10.50;76.64
41312;BME280;27061;41.648;24.568;2023-04-04T12:46:56;84557.63;;;10.52;75.56
41312;BME280;27061;41.648;24.568;2023-04-04T12:49:30;84520.00;;;10.17;74.28
41312;BME280;27061;41.648;24.568;2023-04-04T12:51:58;84472.78;;;9.82;75.04
41312;BME280;27061;41.648;24.568;2023-04-04T12:54:31;84533.91;;;10.38;74.75
41312;BME280;27061;41.648;24.568;2023-04-04T12:57:01;84537.72;;;10.47;74.43
41312;BME280;27061;41.648;24.568;2023-04-04T12:59:38;84535.72;;;10.46;71.70
41312;BME280;27061;41.648;24.568;2023-04-04T13:02:11;84519.91;;;10.42;74.19
41312;BME280;27061;41.648;24.568;2023-04-04T13:04:44;84552.31;;;10.67;74.10
41312;BME280;27061;41.648;24.568;2023-04-04T13:07:28;84544.63;;;10.69;73.66
41312;BME280;27061;41.648;24.568;2023-04-04T13:10:00;84519.63;;;10.50;72.12
41312;BME280;27061;41.648;24.568;2023-04-04T13:12:58;84555.13;;;10.85;73.44
41312;BME280;27061;41.648;24.568;2023-04-04T13:15:48;84553.47;;;10.92;68.13
41312;BME280;27061;41.648;24.568;2023-04-04T13:18:21;84520.16;;;10.76;70.07
41312;BME280;27061;41.648;24.568;2023-04-04T13:20:50;84539.59;;;10.74;74.00
41312;BME280;27061;41.648;24.568;2023-04-04T13:23:19;84527.72;;;10.77;76.68
41312;BME280;27061;41.648;24.568;2023-04-04T13:25:46;84511.19;;;10.75;77.21
41312;BME280;27061;41.648;24.568;2023-04-04T13:28:13;84516.66;;;10.77;75.56
41312;BME280;27061;41.648;24.568;2023-04-04T13:30:41;84506.31;;;10.76;73.36
41312;BME280;27061;41.648;24.568;2023-04-04T13:33:16;84485.22;;;10.66;73.53
41312;BME280;27061;41.648;24.568;2023-04-04T13:35:44;84551.16;;;11.20;76.37